Main page
METAR-TAF:

METAR-TAF

Airports :

Klagenfurt Airport

Klagenfurt, Austria

latitude: 46-39N, longitude: 014-20E, elevation: 448 m

Current weather observation

The report was made 15 minutes ago, at 10:20 UTC
Wind 3 kt from the Northwest, varying between West/Northwest and North
Temperature -1°C
Humidity 86%
Pressure 1023 hPa
Visibility: 8000 m
Overcast at a height of 700 ft

METAR: LOWK 061020Z 32003KT 290V350 8000 OVC007 M01/M03 Q1023 NOSIG

Time: 11:35 (10:35 UTC)

Forecast

The report was made 5 hours and 20 minutes ago, at 05:15 UTC
Forecast valid from 06 at 06 UTC to 07 at 06 UTC
Wind 2 kt from variable directions
Visibility 10 km or more
Broken clouds at a height of 800 ft
Probability 30% :
Temporary
from 06 at 06 UTC to 06 at 08 UTC
Visibility: 4000 m
Broken clouds at a height of 500 ft
mist
Temporary
from 06 at 12 UTC to 06 at 18 UTC
Broken clouds at a height of 1200 ft

TAF: LOWK 060515Z 0606/0706 VRB02KT 9999 BKN008 TX02/0613Z TNM04/0706Z PROB30 TEMPO 0606/0608 4000 BR BKN005 TEMPO 0612/0618 BKN012

Weather observations and forecasts of more than 4000 airports (METAR and TAF reports).

The available stations are represented by yellow and red dots on the map.

Hover mouse over dot to see the name of the station.

Then click to see weather observations and forecasts.

To change the map : click on the green buttons with a black cross to zoom in, on the green button with a dash to zoom out, or on the green arrows for adjacent maps.


METAR-TAF: